• Join FlightAware (Why Join?)
  • Login
  • US Flag 
02:45PM EDT


 

Airport Tracker/Info


-or-


 

Live Flight TrackerFlight Track Log ✈ N6199B ✈ 08-Aug-2013 ✈ KMLB - KFXE

Flight Track Log - Related Links

Times and Time Zones

All times are in EDT time to prevent confusion due to time zone crossing. See the N6199B flight status page for this flight to view local times or setup timezone preferences in your user account.

Time Position Orientation Groundspeed Altitude Reporting Facility
EDT Latitude Longitude Course Direction KTS MPH feet Rate Location/Type
09:16PM 27.9672 -80.6275 192° South 92 106 2,800  Level Miami Center
09:17PM 27.9400 -80.6339 192° South 86 99 3,100 300 Climbing Miami Center
09:18PM 27.9194 -80.6261 162° South 86 99 3,400 300 Climbing Miami Center
09:19PM 27.8967 -80.6183 163° South 86 99 3,700 300 Climbing Miami Center
09:20PM 27.8678 -80.6078 162° South 93 107 4,000 300 Climbing Miami Center
09:21PM 27.8428 -80.6000 165° South 93 107 4,300 180 Climbing Miami Center
09:22PM 27.8181 -80.5922 164° South 93 107 4,400 60 Climbing Miami Center
09:23PM 27.7931 -80.5842 164° South 93 107 4,500  Climbing Miami Center
09:24PM 27.7683 -80.5742 160° South 93 107 4,500  Level Miami Center
09:25PM 27.7394 -80.5639 163° South 93 107 4,500  Level Miami Center
09:26PM 27.7125 -80.5536 161° South 103 119 4,500  Level Miami Center
09:27PM 27.6856 -80.5481 170° South 103 119 4,500  Level Miami Center
09:28PM 27.6628 -80.5378 158° South 103 119 4,500  Level Miami Center
09:29PM 27.6339 -80.5300 167° South 103 119 4,500  Level Miami Center
09:30PM 27.6069 -80.5244 170° South 103 119 4,500  Level Miami Center
09:31PM 27.5800 -80.5142 161° South 103 119 4,500  Level Miami Center
09:32PM 27.5594 -80.5017 152° Southeast 103 119 4,500  Level Miami Center
09:33PM 27.5344 -80.4917 160° South 103 119 4,500  Level Miami Center
09:34PM 27.5056 -80.4836 166° South 97 112 4,500  Level Miami Center
09:35PM 27.4786 -80.4781 170° South 97 112 4,500  Level Miami Center
09:36PM 27.4514 -80.4772 178° South 102 117 4,500  Level Miami Center
09:37PM 27.4264 -80.4789 183° South 102 117 4,500  Level Miami Center
09:38PM 27.3992 -80.4781 178° South 102 117 4,500  Level Miami Center
09:39PM 27.3678 -80.4839 189° South 102 117 4,500 -60 Level Miami Center
09:40PM 27.3383 -80.4900 190° South 102 117 4,400 -60 Descending Miami Center
09:41PM 27.3092 -80.4892 179° South 102 117 4,400  Level Miami Center
09:42PM 27.2861 -80.4908 184° South 102 117 4,400  Level Miami Center
09:43PM 27.2569 -80.4897 178° South 102 117 4,400  Level Miami Center
09:44PM 27.2278 -80.4867 175° South 102 117 4,400 -60 Level Miami Center
09:45PM 27.2008 -80.4833 174° South 102 117 4,300  Descending Miami Center
09:46PM 27.1717 -80.4803 175° South 102 117 4,400 60 Climbing Miami Center
09:47PM 27.1486 -80.4794 178° South 102 117 4,500  Climbing Miami Center
09:48PM 27.1175 -80.4692 164° South 102 117 4,500 -60 Level Miami Center
09:50PM 27.0686 -80.4532 167° South  Level Estimated
09:57PM 26.8901 -80.3881 162° South  Level FlightAware Approximate
09:58PM 26.8646 -80.3789 162° South  Level FlightAware Approximate
09:59PM 26.8391 -80.3696 162° South  Level FlightAware Approximate
10:00PM 26.8136 -80.3603 162° South  Level FlightAware Approximate
10:01PM 26.7881 -80.3511 162° South  Level FlightAware Approximate
10:02PM 26.7626 -80.3418 162° South  Level FlightAware Approximate
10:03PM 26.7371 -80.3326 162° South  Level FlightAware Approximate
10:04PM 26.7116 -80.3233 162° South  Level FlightAware Approximate
10:05PM 26.6861 -80.3141 162° South  Level FlightAware Approximate
10:06PM 26.6606 -80.3048 162° South  Level FlightAware Approximate
10:07PM 26.6351 -80.2956 162° South  Level FlightAware Approximate
10:07PM 26.5864 -80.3344 162° South 105 121 4,400  Level Miami Center
10:08PM 26.6096 -80.2864 162° South  Level FlightAware Approximate
10:08PM 26.5569 -80.3333 178° South 107 123 4,300  Level Miami Center
10:09PM 26.5841 -80.2771 162° South  Level FlightAware Approximate
10:09PM 26.5258 -80.3325 179° South 105 121 4,300  Level Miami Center
10:10PM 26.5586 -80.2679 162° South  Level FlightAware Approximate
10:11PM 26.5331 -80.2587 162° South  Level FlightAware Approximate
10:11PM 26.4944 -80.3339 182° South 107 123 4,100  Level Miami Center
10:12PM 26.5075 -80.2495 162° South  Level FlightAware Approximate
10:12PM 26.4653 -80.3331 179° South 105 121 3,700  Level Miami Center
10:13PM 26.4820 -80.2403 162° South  Level FlightAware Approximate
10:13PM 26.4339 -80.3275 171° South 107 123 3,300  Level Miami Center
10:13PM 26.4133 -80.3153 152° Southeast 103 119 3,000 -480 Descending Miami Center
10:15PM 26.3825 -80.3006 157° South 102 117 2,400 -540 Descending Miami Center
10:15PM 26.3575 -80.2906 160° South 101 116 2,000 -420 Descending Miami Center
10:16PM 26.3308 -80.2781 157° South 103 119 1,600 -360 Descending Miami Center
10:18PM 26.3061 -80.2636 152° Southeast 101 116 1,300 -360 Descending Miami Center
10:18PM 26.2833 -80.2467 146° Southeast 98 113 1,000 -180 Descending Miami Center
10:19PM 26.2628 -80.2322 148° Southeast 98 113 1,000  Level Miami Center
10:20PM 26.2403 -80.2106 139° Southeast 96 110 1,100  Climbing Miami Center
10:21PM 26.2153 -80.2100 179° South 97 112 1,000 -360 Descending Miami Center
10:22PM 26.1944 -80.2094 179° South 79 91 400 -600 Descending Miami Center
10:24PM 26.1969 -80.1763 149° Southeast  Level Estimated
10:31PM 26.1973 -80.1707 149° Southeast  Level Estimated
10:32PM 26.1973 -80.1707 149° Southeast  Level Estimated